sensor_id;sensor_type;location;lat;lon;timestamp;P1;durP1;ratioP1;P2;durP2;ratioP2
47513;SDS011;33951;51.988;5.910;2023-06-24T04:04:49;13.88;;;12.48;;
47513;SDS011;33951;51.988;5.910;2023-06-24T06:55:44;20.65;;;13.30;;
47513;SDS011;33951;51.988;5.910;2023-06-24T07:59:00;7.25;;;6.05;;
47513;SDS011;33951;51.988;5.910;2023-06-24T08:31:51;5.90;;;5.05;;
47513;SDS011;33951;51.988;5.910;2023-06-24T08:47:25;6.57;;;5.40;;
47513;SDS011;33951;51.988;5.910;2023-06-24T13:35:52;7.47;;;4.80;;
47513;SDS011;33951;51.988;5.910;2023-06-24T13:45:17;6.20;;;4.53;;
47513;SDS011;33951;51.988;5.910;2023-06-24T14:26:00;5.70;;;5.10;;
47513;SDS011;33951;51.988;5.910;2023-06-24T14:30:07;6.85;;;4.57;;
47513;SDS011;33951;51.988;5.910;2023-06-24T14:32:56;5.50;;;4.82;;
47513;SDS011;33951;51.988;5.910;2023-06-24T14:39:39;6.10;;;4.78;;
47513;SDS011;33951;51.988;5.910;2023-06-24T14:46:21;5.72;;;4.93;;
47513;SDS011;33951;51.988;5.910;2023-06-24T14:49:33;5.55;;;4.30;;
47513;SDS011;33951;51.988;5.910;2023-06-24T14:52:47;5.68;;;5.07;;
47513;SDS011;33951;51.988;5.910;2023-06-24T14:55:49;4.90;;;4.40;;
47513;SDS011;33951;51.988;5.910;2023-06-24T14:58:15;7.93;;;5.45;;
47513;SDS011;33951;51.988;5.910;2023-06-24T15:01:28;6.32;;;5.72;;
47513;SDS011;33951;51.988;5.910;2023-06-24T15:04:13;6.05;;;5.07;;
47513;SDS011;33951;51.988;5.910;2023-06-24T15:09:30;7.57;;;5.72;;
47513;SDS011;33951;51.988;5.910;2023-06-24T15:12:15;7.55;;;6.72;;
47513;SDS011;33951;51.988;5.910;2023-06-24T15:15:09;7.00;;;6.00;;
47513;SDS011;33951;51.988;5.910;2023-06-24T15:25:00;10.68;;;7.82;;
47513;SDS011;33951;51.988;5.910;2023-06-24T15:28:18;7.82;;;5.72;;
47513;SDS011;33951;51.988;5.910;2023-06-24T15:34:53;8.45;;;7.03;;
47513;SDS011;33951;51.988;5.910;2023-06-24T15:51:33;4.75;;;4.32;;
47513;SDS011;33951;51.988;5.910;2023-06-24T15:54:30;8.40;;;7.45;;
47513;SDS011;33951;51.988;5.910;2023-06-24T15:59:54;14.02;;;10.60;;
47513;SDS011;33951;51.988;5.910;2023-06-24T16:09:36;7.72;;;7.03;;
47513;SDS011;33951;51.988;5.910;2023-06-24T16:25:54;6.85;;;5.38;;
47513;SDS011;33951;51.988;5.910;2023-06-24T16:38:28;6.50;;;5.55;;
47513;SDS011;33951;51.988;5.910;2023-06-24T16:41:38;7.72;;;4.82;;
47513;SDS011;33951;51.988;5.910;2023-06-24T16:44:36;13.68;;;11.90;;
47513;SDS011;33951;51.988;5.910;2023-06-24T16:47:32;35.03;;;31.40;;
47513;SDS011;33951;51.988;5.910;2023-06-24T16:53:43;44.38;;;38.97;;
47513;SDS011;33951;51.988;5.910;2023-06-24T16:56:41;23.85;;;15.70;;
47513;SDS011;33951;51.988;5.910;2023-06-24T17:03:17;10.40;;;9.13;;
47513;SDS011;33951;51.988;5.910;2023-06-24T17:09:34;7.25;;;5.80;;
47513;SDS011;33951;51.988;5.910;2023-06-24T17:12:38;7.13;;;5.20;;
47513;SDS011;33951;51.988;5.910;2023-06-24T17:15:12;6.53;;;5.93;;
47513;SDS011;33951;51.988;5.910;2023-06-24T17:18:18;6.80;;;6.05;;
47513;SDS011;33951;51.988;5.910;2023-06-24T17:24:28;9.30;;;5.75;;
47513;SDS011;33951;51.988;5.910;2023-06-24T17:27:22;7.38;;;5.22;;
47513;SDS011;33951;51.988;5.910;2023-06-24T17:30:25;8.65;;;5.68;;
47513;SDS011;33951;51.988;5.910;2023-06-24T17:33:22;5.38;;;4.55;;
47513;SDS011;33951;51.988;5.910;2023-06-24T17:36:47;7.87;;;5.50;;
47513;SDS011;33951;51.988;5.910;2023-06-24T17:42:29;5.55;;;5.05;;
47513;SDS011;33951;51.988;5.910;2023-06-24T17:45:11;7.57;;;5.38;;
47513;SDS011;33951;51.988;5.910;2023-06-24T17:54:45;8.75;;;7.25;;
47513;SDS011;33951;51.988;5.910;2023-06-24T17:57:11;16.92;;;15.00;;
47513;SDS011;33951;51.988;5.910;2023-06-24T18:03:15;11.35;;;9.95;;
47513;SDS011;33951;51.988;5.910;2023-06-24T18:09:11;7.07;;;6.35;;
47513;SDS011;33951;51.988;5.910;2023-06-24T18:12:16;7.07;;;6.38;;
47513;SDS011;33951;51.988;5.910;2023-06-24T18:14:55;6.63;;;5.85;;
47513;SDS011;33951;51.988;5.910;2023-06-24T18:18:15;7.45;;;5.90;;
47513;SDS011;33951;51.988;5.910;2023-06-24T18:20:51;7.28;;;5.28;;
47513;SDS011;33951;51.988;5.910;2023-06-24T18:24:11;6.25;;;5.47;;
47513;SDS011;33951;51.988;5.910;2023-06-24T18:26:52;6.65;;;4.82;;
47513;SDS011;33951;51.988;5.910;2023-06-24T18:33:05;8.43;;;7.32;;
47513;SDS011;33951;51.988;5.910;2023-06-24T18:36:01;8.82;;;7.93;;
47513;SDS011;33951;51.988;5.910;2023-06-24T18:39:24;6.63;;;5.90;;
47513;SDS011;33951;51.988;5.910;2023-06-24T18:58:08;8.20;;;6.65;;
47513;SDS011;33951;51.988;5.910;2023-06-24T19:07:18;6.63;;;5.60;;
47513;SDS011;33951;51.988;5.910;2023-06-24T19:10:27;5.90;;;5.40;;
47513;SDS011;33951;51.988;5.910;2023-06-24T19:13:30;8.35;;;4.70;;
47513;SDS011;33951;51.988;5.910;2023-06-24T19:16:01;6.25;;;5.10;;
47513;SDS011;33951;51.988;5.910;2023-06-24T19:18:33;6.97;;;5.45;;
47513;SDS011;33951;51.988;5.910;2023-06-24T19:21:11;8.27;;;7.35;;
47513;SDS011;33951;51.988;5.910;2023-06-24T19:23:45;8.23;;;6.55;;
47513;SDS011;33951;51.988;5.910;2023-06-24T19:26:13;6.47;;;5.78;;
47513;SDS011;33951;51.988;5.910;2023-06-24T19:28:55;12.52;;;6.65;;
47513;SDS011;33951;51.988;5.910;2023-06-24T19:31:25;6.75;;;6.15;;
47513;SDS011;33951;51.988;5.910;2023-06-24T19:33:53;6.00;;;5.45;;
47513;SDS011;33951;51.988;5.910;2023-06-24T19:36:22;6.00;;;5.03;;
47513;SDS011;33951;51.988;5.910;2023-06-24T19:38:54;6.22;;;5.55;;
47513;SDS011;33951;51.988;5.910;2023-06-24T19:41:22;5.82;;;5.22;;
47513;SDS011;33951;51.988;5.910;2023-06-24T19:44:01;6.75;;;5.50;;
47513;SDS011;33951;51.988;5.910;2023-06-24T19:46:34;6.28;;;5.32;;
47513;SDS011;33951;51.988;5.910;2023-06-24T19:49:02;9.48;;;6.65;;
47513;SDS011;33951;51.988;5.910;2023-06-24T19:51:35;6.60;;;5.85;;
47513;SDS011;33951;51.988;5.910;2023-06-24T19:54:48;6.78;;;6.07;;
47513;SDS011;33951;51.988;5.910;2023-06-24T19:57:37;7.20;;;6.50;;
47513;SDS011;33951;51.988;5.910;2023-06-24T20:00:06;6.80;;;5.90;;
47513;SDS011;33951;51.988;5.910;2023-06-24T20:02:53;7.32;;;6.30;;
47513;SDS011;33951;51.988;5.910;2023-06-24T20:12:41;7.53;;;5.68;;
47513;SDS011;33951;51.988;5.910;2023-06-24T20:19:39;10.45;;;6.82;;
47513;SDS011;33951;51.988;5.910;2023-06-24T20:22:46;6.90;;;6.20;;
47513;SDS011;33951;51.988;5.910;2023-06-24T20:25:37;7.43;;;6.45;;
47513;SDS011;33951;51.988;5.910;2023-06-24T20:28:03;9.23;;;7.57;;
47513;SDS011;33951;51.988;5.910;2023-06-24T20:30:30;9.35;;;6.85;;
47513;SDS011;33951;51.988;5.910;2023-06-24T20:33:00;9.05;;;7.57;;
47513;SDS011;33951;51.988;5.910;2023-06-24T20:35:26;8.07;;;7.28;;
47513;SDS011;33951;51.988;5.910;2023-06-24T20:37:52;8.18;;;7.30;;
47513;SDS011;33951;51.988;5.910;2023-06-24T20:40:17;7.72;;;6.90;;
47513;SDS011;33951;51.988;5.910;2023-06-24T20:42:45;8.27;;;7.18;;
47513;SDS011;33951;51.988;5.910;2023-06-24T20:45:13;10.02;;;8.15;;
47513;SDS011;33951;51.988;5.910;2023-06-24T20:47:41;7.07;;;6.38;;
47513;SDS011;33951;51.988;5.910;2023-06-24T20:50:07;7.47;;;6.78;;
47513;SDS011;33951;51.988;5.910;2023-06-24T20:52:33;8.65;;;7.03;;
47513;SDS011;33951;51.988;5.910;2023-06-24T20:55:03;7.95;;;6.60;;
47513;SDS011;33951;51.988;5.910;2023-06-24T20:57:29;10.93;;;9.07;;
47513;SDS011;33951;51.988;5.910;2023-06-24T20:59:57;9.05;;;8.10;;
47513;SDS011;33951;51.988;5.910;2023-06-24T21:02:23;10.90;;;8.27;;
47513;SDS011;33951;51.988;5.910;2023-06-24T21:04:49;10.32;;;7.93;;
47513;SDS011;33951;51.988;5.910;2023-06-24T21:07:17;8.63;;;7.05;;
47513;SDS011;33951;51.988;5.910;2023-06-24T21:09:42;10.68;;;7.50;;
47513;SDS011;33951;51.988;5.910;2023-06-24T21:12:13;8.32;;;7.47;;
47513;SDS011;33951;51.988;5.910;2023-06-24T21:14:39;8.15;;;7.35;;
47513;SDS011;33951;51.988;5.910;2023-06-24T21:17:05;7.50;;;6.70;;
47513;SDS011;33951;51.988;5.910;2023-06-24T21:19:34;9.65;;;7.50;;
47513;SDS011;33951;51.988;5.910;2023-06-24T21:21:59;10.47;;;9.37;;
47513;SDS011;33951;51.988;5.910;2023-06-24T21:24:25;12.68;;;9.15;;
47513;SDS011;33951;51.988;5.910;2023-06-24T21:26:51;8.43;;;7.60;;
47513;SDS011;33951;51.988;5.910;2023-06-24T21:29:17;7.82;;;7.03;;
47513;SDS011;33951;51.988;5.910;2023-06-24T21:31:48;9.65;;;6.50;;
47513;SDS011;33951;51.988;5.910;2023-06-24T21:34:14;7.68;;;6.40;;
47513;SDS011;33951;51.988;5.910;2023-06-24T21:36:42;7.82;;;6.65;;
47513;SDS011;33951;51.988;5.910;2023-06-24T21:39:08;9.05;;;6.47;;
47513;SDS011;33951;51.988;5.910;2023-06-24T21:41:34;12.00;;;6.93;;
47513;SDS011;33951;51.988;5.910;2023-06-24T21:44:01;7.53;;;6.78;;
47513;SDS011;33951;51.988;5.910;2023-06-24T21:46:39;7.03;;;6.00;;
47513;SDS011;33951;51.988;5.910;2023-06-24T21:49:08;7.50;;;6.22;;
47513;SDS011;33951;51.988;5.910;2023-06-24T21:51:37;6.78;;;5.93;;
47513;SDS011;33951;51.988;5.910;2023-06-24T21:54:04;7.30;;;5.80;;
47513;SDS011;33951;51.988;5.910;2023-06-24T21:56:33;9.02;;;6.18;;
47513;SDS011;33951;51.988;5.910;2023-06-24T21:59:03;9.55;;;6.38;;
47513;SDS011;33951;51.988;5.910;2023-06-24T22:01:29;6.68;;;6.00;;
47513;SDS011;33951;51.988;5.910;2023-06-24T22:03:56;6.13;;;5.50;;
47513;SDS011;33951;51.988;5.910;2023-06-24T22:06:22;10.10;;;6.22;;
47513;SDS011;33951;51.988;5.910;2023-06-24T22:08:50;6.43;;;5.78;;
47513;SDS011;33951;51.988;5.910;2023-06-24T22:11:24;6.70;;;6.10;;
47513;SDS011;33951;51.988;5.910;2023-06-24T22:13:50;8.80;;;6.25;;
47513;SDS011;33951;51.988;5.910;2023-06-24T22:16:16;7.40;;;6.60;;
47513;SDS011;33951;51.988;5.910;2023-06-24T22:18:42;7.97;;;6.32;;
47513;SDS011;33951;51.988;5.910;2023-06-24T22:21:13;10.68;;;6.47;;
47513;SDS011;33951;51.988;5.910;2023-06-24T22:23:43;7.35;;;6.63;;
47513;SDS011;33951;51.988;5.910;2023-06-24T22:26:11;7.07;;;6.38;;
47513;SDS011;33951;51.988;5.910;2023-06-24T22:28:40;7.40;;;6.68;;
47513;SDS011;33951;51.988;5.910;2023-06-24T22:31:06;7.80;;;6.82;;
47513;SDS011;33951;51.988;5.910;2023-06-24T22:33:37;7.82;;;7.03;;
47513;SDS011;33951;51.988;5.910;2023-06-24T22:36:02;8.18;;;6.60;;
47513;SDS011;33951;51.988;5.910;2023-06-24T22:38:28;7.80;;;6.95;;
47513;SDS011;33951;51.988;5.910;2023-06-24T22:40:54;8.88;;;7.15;;
47513;SDS011;33951;51.988;5.910;2023-06-24T22:43:20;8.88;;;7.60;;
47513;SDS011;33951;51.988;5.910;2023-06-24T22:45:46;9.32;;;8.43;;
47513;SDS011;33951;51.988;5.910;2023-06-24T22:48:11;11.98;;;9.57;;
47513;SDS011;33951;51.988;5.910;2023-06-24T22:50:37;10.52;;;9.50;;
47513;SDS011;33951;51.988;5.910;2023-06-24T22:53:06;12.68;;;9.60;;
47513;SDS011;33951;51.988;5.910;2023-06-24T22:55:35;8.80;;;7.43;;
47513;SDS011;33951;51.988;5.910;2023-06-24T22:58:01;9.23;;;7.20;;
47513;SDS011;33951;51.988;5.910;2023-06-24T23:00:26;9.77;;;6.95;;
47513;SDS011;33951;51.988;5.910;2023-06-24T23:02:52;11.63;;;7.80;;
47513;SDS011;33951;51.988;5.910;2023-06-24T23:05:18;9.38;;;7.95;;
47513;SDS011;33951;51.988;5.910;2023-06-24T23:07:44;9.13;;;8.05;;
47513;SDS011;33951;51.988;5.910;2023-06-24T23:10:10;11.07;;;8.10;;
47513;SDS011;33951;51.988;5.910;2023-06-24T23:12:48;8.88;;;7.97;;
47513;SDS011;33951;51.988;5.910;2023-06-24T23:15:16;10.70;;;8.30;;
47513;SDS011;33951;51.988;5.910;2023-06-24T23:17:43;10.20;;;8.50;;
47513;SDS011;33951;51.988;5.910;2023-06-24T23:20:12;11.80;;;7.55;;
47513;SDS011;33951;51.988;5.910;2023-06-24T23:22:40;10.45;;;7.78;;
47513;SDS011;33951;51.988;5.910;2023-06-24T23:25:06;9.38;;;8.38;;
47513;SDS011;33951;51.988;5.910;2023-06-24T23:27:33;9.18;;;8.35;;
47513;SDS011;33951;51.988;5.910;2023-06-24T23:30:04;9.65;;;8.65;;
47513;SDS011;33951;51.988;5.910;2023-06-24T23:32:39;10.50;;;9.30;;
47513;SDS011;33951;51.988;5.910;2023-06-24T23:35:09;12.50;;;11.20;;
47513;SDS011;33951;51.988;5.910;2023-06-24T23:37:36;12.88;;;10.35;;
47513;SDS011;33951;51.988;5.910;2023-06-24T23:40:02;12.35;;;10.40;;
47513;SDS011;33951;51.988;5.910;2023-06-24T23:42:29;12.00;;;9.95;;
47513;SDS011;33951;51.988;5.910;2023-06-24T23:47:25;12.00;;;10.70;;
47513;SDS011;33951;51.988;5.910;2023-06-24T23:49:50;12.32;;;10.82;;
47513;SDS011;33951;51.988;5.910;2023-06-24T23:52:21;13.02;;;10.75;;
47513;SDS011;33951;51.988;5.910;2023-06-24T23:54:48;11.50;;;9.82;;
47513;SDS011;33951;51.988;5.910;2023-06-24T23:57:13;11.50;;;10.30;;
47513;SDS011;33951;51.988;5.910;2023-06-24T23:59:39;10.38;;;9.25;;
